Time;durP1;ratioP1;P1;durP2;ratioP2;P2;SDS_P1;SDS_P2;PMS_P1;PMS_P2;Temp;Humidity;BMP_temperature;BMP_pressure;BME280_temperature;BME280_humidity;BME280_pressure;Samples;Min_cycle;Max_cycle;Signal;HPM_P1;HPM_P2
2022/09/29 00:02:15;;;;;;;5.63;3.50;;;;;;;7.12;100.00;97282.50;5034624;28;20037;-67
2022/09/29 00:04:41;;;;;;;9.15;3.72;;;;;;;7.12;100.00;97284.38;5036275;28;20041;-67
2022/09/29 00:07:06;;;;;;;8.43;3.70;;;;;;;7.07;100.00;97287.69;5033977;28;20020;-67
2022/09/29 00:09:31;;;;;;;6.10;3.10;;;;;;;6.99;100.00;97272.66;5027870;28;20399;-68
2022/09/29 00:11:57;;;;;;;6.63;3.50;;;;;;;7.01;100.00;97292.09;5020707;28;20026;-68
2022/09/29 00:14:23;;;;;;;8.88;3.42;;;;;;;7.06;100.00;97280.69;5028694;28;20029;-67
2022/09/29 00:16:49;;;;;;;7.57;3.78;;;;;;;6.98;100.00;97283.66;5034045;28;20021;-68
2022/09/29 00:19:15;;;;;;;7.78;4.13;;;;;;;6.83;100.00;97259.75;5025057;28;20033;-68
2022/09/29 00:21:40;;;;;;;9.00;3.50;;;;;;;6.93;100.00;97284.28;5030098;28;20033;-67
2022/09/29 00:24:05;;;;;;;8.32;3.63;;;;;;;6.97;100.00;97274.75;5022996;28;20068;-67
2022/09/29 00:26:31;;;;;;;5.72;3.25;;;;;;;6.87;100.00;97276.28;5030910;28;20028;-67
2022/09/29 00:28:59;;;;;;;10.95;3.13;;;;;;;6.89;100.00;97276.88;5025299;28;20112;-67
2022/09/29 00:31:27;;;;;;;8.32;3.40;;;;;;;6.92;100.00;97271.09;5023693;28;20360;-67
2022/09/29 00:33:52;;;;;;;6.43;3.60;;;;;;;6.86;100.00;97269.25;5028924;28;20053;-68
2022/09/29 00:36:19;;;;;;;9.05;3.33;;;;;;;6.90;100.00;97273.16;5034880;28;20497;-67
2022/09/29 00:38:46;;;;;;;8.07;3.28;;;;;;;6.75;100.00;97262.69;5028990;28;20124;-67
2022/09/29 00:41:24;;;;;;;6.82;3.40;;;;;;;6.78;100.00;97283.78;5031621;28;20112;-67
2022/09/29 00:44:01;;;;;;;7.25;3.38;;;;;;;6.85;100.00;97281.06;5022219;28;20479;-67
2022/09/29 00:46:47;;;;;;;7.85;3.83;;;;;;;6.83;100.00;97275.06;5035141;28;20110;-67
2022/09/29 00:49:18;;;;;;;6.47;3.70;;;;;;;6.99;100.00;97267.28;5023221;28;20111;-67
2022/09/29 00:51:53;;;;;;;8.18;2.97;;;;;;;7.09;100.00;97272.19;5022564;28;20116;-67
2022/09/29 00:54:19;;;;;;;6.57;2.90;;;;;;;7.07;100.00;97271.56;5020254;28;20678;-68
2022/09/29 00:56:47;;;;;;;6.05;3.20;;;;;;;7.18;100.00;97268.19;5037436;28;20029;-68
2022/09/29 00:59:20;;;;;;;5.20;3.20;;;;;;;7.20;100.00;97268.81;5027106;28;20030;-67
2022/09/29 01:01:45;;;;;;;6.78;2.95;;;;;;;7.19;100.00;97256.38;5029452;28;20467;-67
2022/09/29 01:04:15;;;;;;;6.78;2.67;;;;;;;7.27;100.00;97263.34;5015357;28;20030;-68
2022/09/29 01:06:45;;;;;;;5.63;3.00;;;;;;;7.23;100.00;97256.75;5030038;28;20040;-67
2022/09/29 01:09:16;;;;;;;7.47;3.30;;;;;;;7.15;100.00;97241.75;5030035;28;20059;-68
2022/09/29 01:11:41;;;;;;;4.85;2.55;;;;;;;7.30;100.00;97252.16;5026355;28;20037;-68
2022/09/29 01:14:08;;;;;;;3.60;2.72;;;;;;;7.25;100.00;97227.78;5024690;28;20394;-67
2022/09/29 01:16:36;;;;;;;5.38;2.47;;;;;;;7.33;100.00;97251.69;5033011;28;20021;-67
2022/09/29 01:19:06;;;;;;;6.80;3.10;;;;;;;7.32;100.00;97243.88;5027557;28;20030;-66
2022/09/29 01:21:59;;;;;;;8.55;3.38;;;;;;;7.28;100.00;97248.03;5026415;28;20021;-67
2022/09/29 01:24:46;;;;;;;5.05;2.60;;;;;;;7.26;100.00;97250.94;5028495;28;20426;-67
2022/09/29 01:27:20;;;;;;;9.68;2.67;;;;;;;7.18;100.00;97253.94;5023761;28;20530;-67
2022/09/29 01:30:09;;;;;;;5.65;3.00;;;;;;;7.06;100.00;97255.66;5033788;28;20668;-67
2022/09/29 01:32:37;;;;;;;;;;;;;;;6.96;100.00;97258.84;5027835;28;20087;-68
2022/09/29 01:35:34;;;;;;;4.57;2.95;;;;;;;6.83;100.00;97261.63;5025139;28;19943;-67
2022/09/29 01:38:10;;;;;;;6.20;3.00;;;;;;;6.77;100.00;97256.06;5027657;28;20044;-67
2022/09/29 01:40:49;;;;;;;7.00;2.88;;;;;;;6.86;100.00;97263.88;5015138;28;20030;-67
2022/09/29 01:43:30;;;;;;;5.30;2.75;;;;;;;6.69;100.00;97237.53;5027040;28;20025;-68
2022/09/29 01:46:03;;;;;;;6.80;3.22;;;;;;;6.97;100.00;97263.19;5027648;28;20029;-67
2022/09/29 01:48:51;;;;;;;6.00;2.85;;;;;;;6.76;100.00;97235.63;5032064;28;20018;-68
2022/09/29 01:51:23;;;;;;;5.05;3.17;;;;;;;6.89;100.00;97263.44;5027603;28;20124;-67
2022/09/29 01:53:52;;;;;;;3.90;2.50;;;;;;;6.87;100.00;97265.53;5024389;28;20426;-67
2022/09/29 01:56:34;;;;;;;10.60;2.70;;;;;;;6.79;100.00;97264.75;5028637;28;20037;-67
2022/09/29 01:59:26;;;;;;;4.63;2.90;;;;;;;6.70;100.00;97262.53;5023088;28;20488;-68
2022/09/29 02:01:57;;;;;;;8.13;2.40;;;;;;;6.69;100.00;97274.31;5031466;28;20493;-68
2022/09/29 02:04:30;;;;;;;5.03;2.72;;;;;;;6.64;100.00;97264.22;5026075;28;20479;-67
2022/09/29 02:07:00;;;;;;;5.35;2.95;;;;;;;6.66;100.00;97267.53;5033310;28;20028;-67
2022/09/29 02:09:35;;;;;;;7.07;2.95;;;;;;;6.59;100.00;97262.19;5035444;28;20364;-67
2022/09/29 02:12:03;;;;;;;4.20;2.88;;;;;;;6.70;100.00;97266.03;5018955;28;20037;-68
2022/09/29 02:14:35;;;;;;;10.68;2.85;;;;;;;6.76;100.00;97272.44;5031615;28;20055;-67
2022/09/29 02:17:18;;;;;;;7.35;3.58;;;;;;;6.82;100.00;97259.97;5038552;28;20025;-67
2022/09/29 02:19:44;;;;;;;6.35;2.80;;;;;;;6.84;100.00;97261.41;5027164;28;20049;-68
2022/09/29 02:22:09;;;;;;;6.07;3.65;;;;;;;6.83;100.00;97251.69;5026216;28;20069;-66
2022/09/29 02:24:35;;;;;;;5.32;2.53;;;;;;;6.76;100.00;97250.94;5034106;28;20044;-66
2022/09/29 02:27:01;;;;;;;4.70;2.83;;;;;;;6.91;100.00;97269.41;5033015;28;20036;-66
2022/09/29 02:29:27;;;;;;;3.88;2.65;;;;;;;6.90;100.00;97273.16;5041495;28;20024;-66
2022/09/29 02:31:56;;;;;;;5.55;3.13;;;;;;;6.92;100.00;97282.66;5043390;28;20018;-66
2022/09/29 02:34:22;;;;;;;4.45;3.25;;;;;;;6.86;100.00;97277.31;5029341;28;20033;-67
2022/09/29 02:37:20;;;;;;;5.82;2.72;;;;;;;6.84;100.00;97274.00;5035152;28;20048;-67
2022/09/29 02:40:14;;;;;;;6.80;2.97;;;;;;;6.74;100.00;97259.19;5036503;28;20048;-67
2022/09/29 02:42:52;;;;;;;4.57;2.63;;;;;;;6.81;100.00;97272.56;5027282;28;20482;-67
2022/09/29 02:45:39;;;;;;;5.13;2.65;;;;;;;6.83;100.00;97277.75;5028440;28;20174;-67
2022/09/29 02:48:12;;;;;;;12.05;2.72;;;;;;;6.82;100.00;97276.94;5026045;28;20052;-68
2022/09/29 02:50:55;;;;;;;7.07;3.03;;;;;;;6.87;100.00;97278.97;5028967;28;20483;-67
2022/09/29 02:53:43;;;;;;;4.25;2.28;;;;;;;6.98;100.00;97275.56;5027317;28;20120;-67
2022/09/29 02:56:25;;;;;;;6.43;2.28;;;;;;;7.07;100.00;97274.25;5030920;28;20041;-67
2022/09/29 02:59:06;;;;;;;7.03;2.60;;;;;;;7.28;100.00;97275.75;5030216;28;20033;-67
2022/09/29 03:01:32;;;;;;;8.27;2.47;;;;;;;7.37;100.00;97263.69;5026023;28;20030;-68
2022/09/29 03:03:59;;;;;;;7.25;2.67;;;;;;;7.34;100.00;97253.34;5025123;28;20390;-73
2022/09/29 03:06:24;;;;;;;7.18;2.25;;;;;;;7.33;100.00;97249.00;5023768;28;20499;-74
2022/09/29 03:08:50;;;;;;;5.30;2.85;;;;;;;7.15;100.00;97241.75;5039065;28;20072;-74
2022/09/29 03:11:15;;;;;;;5.35;2.33;;;;;;;7.19;100.00;97256.38;5029273;28;20080;-73
2022/09/29 03:13:41;;;;;;;5.30;2.30;;;;;;;7.22;100.00;97271.25;5029406;28;20442;-68
2022/09/29 03:16:06;;;;;;;5.65;2.60;;;;;;;7.11;100.00;97251.28;5029765;28;20118;-76
2022/09/29 03:18:31;;;;;;;3.70;2.40;;;;;;;7.06;100.00;97244.91;5039878;28;20028;-74
2022/09/29 03:20:57;;;;;;;5.22;2.40;;;;;;;7.05;100.00;97244.09;5027908;28;20045;-76
2022/09/29 03:23:22;;;;;;;5.32;2.72;;;;;;;6.98;100.00;97243.31;5031887;28;20553;-77
2022/09/29 03:25:48;;;;;;;5.00;3.13;;;;;;;6.95;100.00;97243.75;5029763;28;20033;-75
2022/09/29 03:28:15;;;;;;;6.63;3.10;;;;;;;7.08;100.00;97256.28;5034349;28;20040;-77
2022/09/29 03:30:41;;;;;;;7.60;3.55;;;;;;;6.91;100.00;97231.78;5030860;28;20033;-75
2022/09/29 03:33:06;;;;;;;5.05;2.60;;;;;;;7.02;100.00;97249.88;5025592;28;20037;-75
2022/09/29 03:35:31;;;;;;;6.60;2.72;;;;;;;7.06;100.00;97243.03;5030550;28;20049;-73
2022/09/29 03:37:58;;;;;;;4.80;2.83;;;;;;;6.92;100.00;97231.56;5033548;28;20033;-74
2022/09/29 03:40:24;;;;;;;3.53;2.42;;;;;;;7.05;100.00;97245.94;5030720;28;20096;-73
2022/09/29 03:42:50;;;;;;;5.88;2.60;;;;;;;6.90;100.00;97228.28;5025666;28;20025;-76
2022/09/29 03:45:15;;;;;;;7.40;2.67;;;;;;;6.85;100.00;97221.91;5037764;28;20431;-76
2022/09/29 03:47:40;;;;;;;5.43;2.70;;;;;;;6.76;100.00;97207.94;5040449;28;20029;-78
2022/09/29 03:50:06;;;;;;;5.25;2.40;;;;;;;6.87;100.00;97231.41;5030499;28;20103;-78
2022/09/29 03:52:31;;;;;;;5.28;2.90;;;;;;;6.89;100.00;97233.84;5029515;28;20028;-79
2022/09/29 03:54:56;;;;;;;5.15;2.70;;;;;;;6.87;100.00;97227.91;5032978;28;20033;-76
2022/09/29 03:57:22;;;;;;;5.10;2.67;;;;;;;6.65;100.00;97201.34;5032964;28;20479;-74
2022/09/29 03:59:47;;;;;;;6.38;2.50;;;;;;;6.89;100.00;97241.91;5031463;28;20053;-70
2022/09/29 04:02:13;;;;;;;4.80;2.70;;;;;;;6.61;100.00;97212.78;5032235;28;20434;-74
2022/09/29 04:04:38;;;;;;;4.55;2.45;;;;;;;6.70;100.00;97235.66;5033365;28;20445;-74
2022/09/29 04:07:04;;;;;;;4.93;2.80;;;;;;;6.51;100.00;97211.38;5029785;28;20810;-74
2022/09/29 04:09:29;;;;;;;4.25;2.45;;;;;;;6.57;100.00;97233.88;5026532;28;20075;-69
2022/09/29 04:11:55;;;;;;;5.18;2.58;;;;;;;6.47;100.00;97231.69;5027924;28;20025;-74
2022/09/29 04:14:20;;;;;;;5.60;2.80;;;;;;;6.49;100.00;97242.19;5031930;28;20059;-74
2022/09/29 04:16:46;;;;;;;5.47;3.00;;;;;;;6.37;100.00;97247.44;5035861;28;20394;-71
2022/09/29 04:19:11;;;;;;;4.20;2.40;;;;;;;6.25;100.00;97233.84;5032291;28;20029;-77
2022/09/29 04:21:36;;;;;;;5.70;2.92;;;;;;;6.09;100.00;97215.56;5026107;28;20076;-78
2022/09/29 04:24:02;;;;;;;6.28;3.00;;;;;;;6.26;100.00;97248.09;5025325;28;20489;-71
2022/09/29 04:26:27;;;;;;;7.45;3.60;;;;;;;6.20;100.00;97236.34;5027584;28;20112;-74
2022/09/29 04:28:52;;;;;;;7.95;3.38;;;;;;;6.31;100.00;97259.88;5037996;28;20098;-71
2022/09/29 04:31:18;;;;;;;7.55;3.10;;;;;;;6.16;100.00;97229.78;5030087;28;20022;-68
2022/09/29 04:33:43;;;;;;;6.10;3.20;;;;;;;6.13;100.00;97246.28;5023584;28;20028;-74
2022/09/29 04:36:08;;;;;;;8.05;3.33;;;;;;;6.16;100.00;97256.63;5028493;28;20102;-70
2022/09/29 04:38:34;;;;;;;5.68;3.25;;;;;;;6.19;100.00;97256.19;5029480;28;20039;-73
2022/09/29 04:40:59;;;;;;;6.80;3.47;;;;;;;6.27;100.00;97249.75;5030665;28;20025;-72
2022/09/29 04:43:25;;;;;;;5.43;3.22;;;;;;;6.12;100.00;97233.91;5027755;28;20022;-70
2022/09/29 04:45:50;;;;;;;6.53;3.10;;;;;;;6.11;100.00;97243.03;5031083;28;20041;-70
2022/09/29 04:48:15;;;;;;;7.25;3.58;;;;;;;5.99;100.00;97239.34;5030686;28;20025;-72
2022/09/29 04:50:42;;;;;;;9.38;3.95;;;;;;;6.10;100.00;97260.16;5030849;28;20044;-72
2022/09/29 04:53:08;;;;;;;7.88;3.85;;;;;;;6.00;100.00;97257.94;5032473;28;20036;-73
2022/09/29 04:55:36;;;;;;;5.63;3.55;;;;;;;6.03;100.00;97262.06;5030728;28;20378;-76
2022/09/29 04:58:02;;;;;;;4.88;3.25;;;;;;;5.89;100.00;97242.44;5028984;28;20033;-75
2022/09/29 05:00:27;;;;;;;5.18;3.50;;;;;;;5.93;100.00;97262.47;5028841;28;20028;-73
2022/09/29 05:02:52;;;;;;;4.80;3.10;;;;;;;5.90;100.00;97260.22;5022209;28;20025;-68
2022/09/29 05:05:18;;;;;;;6.43;4.05;;;;;;;5.83;100.00;97246.78;5019281;28;20013;-73
2022/09/29 05:07:44;;;;;;;6.18;3.28;;;;;;;5.86;100.00;97262.47;5030057;28;20402;-69
2022/09/29 05:10:10;;;;;;;6.15;3.38;;;;;;;5.95;100.00;97275.69;5022417;28;20025;-71
2022/09/29 05:12:36;;;;;;;5.40;3.28;;;;;;;6.09;100.00;97277.31;5027940;28;20091;-72
2022/09/29 05:15:03;;;;;;;8.43;3.42;;;;;;;6.15;100.00;97250.41;5033973;28;20064;-72
2022/09/29 05:17:28;;;;;;;35.28;11.00;;;;;;;6.37;100.00;97268.94;5024980;28;20033;-77
2022/09/29 05:19:53;;;;;;;49.65;20.52;;;;;;;6.27;100.00;97245.22;5028969;28;20041;-77
2022/09/29 05:22:23;;;;;;;18.75;9.23;;;;;;;6.29;100.00;97253.88;5036779;28;20505;-72
2022/09/29 05:24:48;;;;;;;;;;;;;;;6.32;100.00;97277.63;5034782;28;21767;-73
2022/09/29 05:27:14;;;;;;;18.80;7.93;;;;;;;6.21;100.00;97275.63;5029220;28;19913;-70
2022/09/29 05:29:39;;;;;;;8.38;4.40;;;;;;;6.18;100.00;97281.38;5020288;28;20032;-69
2022/09/29 05:32:04;;;;;;;5.40;3.50;;;;;;;6.07;100.00;97277.50;5025206;28;21629;-73
2022/09/29 05:34:30;;;;;;;12.63;4.35;;;;;;;6.18;100.00;97278.69;5029218;28;20553;-70
2022/09/29 05:36:55;;;;;;;8.13;4.05;;;;;;;6.28;100.00;97295.19;5022297;28;20492;-73
2022/09/29 05:39:20;;;;;;;8.30;3.92;;;;;;;6.23;100.00;97280.75;5030099;28;20041;-77
2022/09/29 05:41:47;;;;;;;12.20;3.92;;;;;;;6.18;100.00;97275.19;5036856;28;20033;-68
2022/09/29 05:44:12;;;;;;;8.70;5.07;;;;;;;6.45;100.00;97302.78;5021685;28;20025;-67
2022/09/29 05:46:38;;;;;;;8.52;4.10;;;;;;;6.48;100.00;97305.03;5025014;28;20156;-69
2022/09/29 05:49:03;;;;;;;9.90;3.90;;;;;;;6.39;100.00;97292.88;5034879;28;20079;-72
2022/09/29 05:51:29;;;;;;;10.05;4.95;;;;;;;6.52;100.00;97293.66;5030271;28;20530;-70
2022/09/29 05:53:55;;;;;;;10.30;3.95;;;;;;;6.62;100.00;97295.84;5031373;28;20026;-74
2022/09/29 05:56:24;;;;;;;4.70;3.20;;;;;;;6.61;100.00;97296.09;5039373;28;20025;-74
2022/09/29 05:58:50;;;;;;;6.30;2.80;;;;;;;6.66;100.00;97299.78;5031785;28;20093;-73
2022/09/29 06:01:21;;;;;;;9.73;3.10;;;;;;;6.76;100.00;97302.00;5030706;28;20035;-73
2022/09/29 06:03:47;;;;;;;7.00;2.70;;;;;;;6.78;100.00;97292.66;5033558;28;20025;-72
2022/09/29 06:06:20;;;;;;;6.60;3.20;;;;;;;6.67;100.00;97273.72;5023670;28;20048;-73
2022/09/29 06:08:47;;;;;;;10.27;3.53;;;;;;;6.90;100.00;97302.72;5028402;28;20065;-73
2022/09/29 06:11:15;;;;;;;10.60;3.50;;;;;;;7.09;100.00;97293.69;5023714;28;20032;-72
2022/09/29 06:13:44;;;;;;;7.65;4.13;;;;;;;7.22;100.00;97285.53;5027530;28;20569;-71
2022/09/29 06:16:10;;;;;;;5.30;3.30;;;;;;;7.32;100.00;97270.75;5036016;28;20029;-74
2022/09/29 06:18:36;;;;;;;5.28;2.95;;;;;;;7.72;100.00;97283.84;5017014;28;20033;-71
2022/09/29 06:21:06;;;;;;;8.00;3.50;;;;;;;7.63;100.00;97272.56;5021875;28;20030;-76
2022/09/29 06:23:32;;;;;;;8.05;3.08;;;;;;;7.90;100.00;97283.84;5030278;28;20074;-71
2022/09/29 06:26:00;;;;;;;5.22;2.70;;;;;;;7.86;100.00;97264.66;5020341;28;20021;-71
2022/09/29 06:28:27;;;;;;;5.25;2.80;;;;;;;7.90;100.00;97273.09;5028714;28;20574;-72
2022/09/29 06:31:02;;;;;;;10.73;3.65;;;;;;;7.79;100.00;97265.75;5027931;28;20026;-72
2022/09/29 06:33:28;;;;;;;5.60;2.35;;;;;;;7.89;100.00;97284.91;5030304;28;20035;-71
2022/09/29 06:38:38;;;;;;;6.25;2.65;;;;;;;8.08;100.00;97291.13;5021026;28;20052;-71
2022/09/29 06:41:04;;;;;;;7.47;2.10;;;;;;;8.06;100.00;97283.25;5019564;28;20434;-73
2022/09/29 06:43:29;;;;;;;5.57;2.85;;;;;;;7.99;100.00;97265.53;5025844;28;20487;-73
2022/09/29 06:45:54;;;;;;;6.35;2.55;;;;;;;7.92;100.00;97249.47;5033219;28;20013;-72
2022/09/29 06:48:20;;;;;;;5.57;2.97;;;;;;;7.93;100.00;97245.72;5026675;28;20386;-71
2022/09/29 06:50:45;;;;;;;5.47;2.38;;;;;;;8.07;100.00;97301.09;5028086;28;20036;-71
2022/09/29 06:53:11;;;;;;;4.63;2.25;;;;;;;7.80;100.00;97284.38;5023110;28;20029;-74
2022/09/29 06:55:37;;;;;;;6.35;2.42;;;;;;;7.86;100.00;97275.41;5027288;28;20067;-72
2022/09/29 06:58:03;;;;;;;3.38;2.33;;;;;;;8.10;100.00;97297.94;5036587;28;20492;-72
2022/09/29 07:00:28;;;;;;;5.63;2.60;;;;;;;8.13;100.00;97291.28;5030859;28;20026;-71
2022/09/29 07:02:54;;;;;;;4.47;2.40;;;;;;;8.41;100.00;97306.94;5032612;28;20071;-72
2022/09/29 07:05:19;;;;;;;4.82;2.28;;;;;;;8.40;100.00;97307.97;5030090;28;20045;-72
2022/09/29 07:07:47;;;;;;;7.88;2.50;;;;;;;8.67;100.00;97313.88;5016194;28;20395;-72
2022/09/29 07:10:12;;;;;;;9.90;2.65;;;;;;;8.96;100.00;97287.94;5020487;28;20029;-73
2022/09/29 07:12:37;;;;;;;3.95;2.30;;;;;;;9.29;100.00;97281.19;5022563;28;20056;-73
2022/09/29 07:15:03;;;;;;;9.82;2.83;;;;;;;9.51;100.00;97294.13;5018081;28;20156;-72
2022/09/29 07:17:29;;;;;;;4.78;2.20;;;;;;;9.76;100.00;97308.22;5015969;28;20030;-74
2022/09/29 07:19:55;;;;;;;3.60;1.83;;;;;;;9.97;100.00;97314.09;5019649;28;20029;-69
2022/09/29 07:22:21;;;;;;;4.38;2.20;;;;;;;10.02;100.00;97277.19;5016600;28;20120;-71
2022/09/29 07:24:47;;;;;;;4.57;2.25;;;;;;;10.26;100.00;97293.38;5016605;28;20148;-72
2022/09/29 07:27:12;;;;;;;6.30;2.40;;;;;;;10.22;100.00;97293.03;5019519;28;20032;-72
2022/09/29 07:29:39;;;;;;;5.65;2.85;;;;;;;10.93;100.00;97288.25;5019353;28;20085;-72
2022/09/29 07:32:04;;;;;;;7.45;2.30;;;;;;;11.66;100.00;97287.53;5017337;28;20115;-73
2022/09/29 07:34:29;;;;;;;5.53;1.60;;;;;;;12.15;100.00;97301.28;5011144;28;20463;-73
2022/09/29 07:36:55;;;;;;;4.72;2.25;;;;;;;11.78;100.00;97297.22;5016070;28;20029;-71
2022/09/29 07:39:21;;;;;;;8.88;2.35;;;;;;;11.49;100.00;97306.50;5020007;28;20037;-71
2022/09/29 07:41:47;;;;;;;3.85;2.00;;;;;;;11.43;100.00;97312.94;5018534;28;20025;-69
2022/09/29 07:44:12;;;;;;;6.97;2.08;;;;;;;11.14;100.00;97296.72;5017237;28;20043;-70
2022/09/29 07:46:37;;;;;;;4.35;2.20;;;;;;;10.92;100.00;97293.88;5017330;28;20047;-69
2022/09/29 07:49:03;;;;;;;7.38;2.10;;;;;;;11.15;100.00;97314.59;5015869;28;20494;-70
2022/09/29 07:51:28;;;;;;;4.72;1.90;;;;;;;11.50;100.00;97316.25;5014259;28;20030;-68
2022/09/29 07:53:53;;;;;;;5.32;1.80;;;;;;;11.92;100.00;97308.59;5027527;28;20398;-68
2022/09/29 07:56:21;;;;;;;5.72;2.20;;;;;;;12.38;98.62;97301.06;5022975;28;20026;-73
2022/09/29 07:58:48;;;;;;;3.83;2.50;;;;;;;12.78;97.19;97301.81;5018949;28;20033;-74
2022/09/29 08:01:15;;;;;;;6.57;2.00;;;;;;;12.97;96.23;97321.28;5021037;28;20037;-72
2022/09/29 08:03:45;;;;;;;10.98;2.58;;;;;;;12.60;93.50;97295.66;5025105;28;20022;-73
2022/09/29 08:06:10;;;;;;;8.32;2.13;;;;;;;12.35;95.01;97301.56;5026034;28;20041;-75
2022/09/29 08:08:40;;;;;;;6.85;2.22;;;;;;;12.52;95.91;97293.34;5025637;28;20030;-74
2022/09/29 08:11:09;;;;;;;4.60;2.15;;;;;;;12.92;98.27;97312.00;5027654;28;20033;-70
2022/09/29 08:13:36;;;;;;;6.75;2.70;;;;;;;13.06;95.61;97307.00;5023547;28;20056;-74
2022/09/29 08:16:05;;;;;;;3.08;2.05;;;;;;;13.18;94.21;97304.13;5020223;28;20495;-75
2022/09/29 08:18:32;;;;;;;4.60;2.10;;;;;;;13.95;87.24;97300.16;5018842;28;20121;-75
2022/09/29 08:20:58;;;;;;;2.85;2.00;;;;;;;13.53;80.91;97284.63;5025936;28;20036;-75
2022/09/29 08:23:24;;;;;;;5.03;1.90;;;;;;;14.20;81.90;97314.97;5019487;28;20026;-70
2022/09/29 08:25:57;;;;;;;3.33;2.05;;;;;;;14.11;82.63;97294.81;5024049;28;20036;-75
2022/09/29 08:28:23;;;;;;;3.17;1.65;;;;;;;15.27;75.69;97323.63;5028580;28;20038;-73
2022/09/29 08:30:48;;;;;;;3.55;2.40;;;;;;;15.20;74.66;97316.78;5022619;28;20095;-73
2022/09/29 08:33:15;;;;;;;6.03;2.40;;;;;;;14.57;74.80;97317.69;5020206;28;20925;-74
2022/09/29 08:35:40;;;;;;;5.93;1.83;;;;;;;14.21;75.55;97338.41;5025426;28;20032;-74
2022/09/29 08:38:06;;;;;;;4.95;2.10;;;;;;;13.70;80.40;97333.44;5022834;28;20181;-73
2022/09/29 08:40:31;;;;;;;8.20;2.20;;;;;;;13.26;84.03;97327.31;5019912;28;20048;-73
2022/09/29 08:43:20;;;;;;;4.82;2.30;;;;;;;13.51;82.60;97345.75;5024637;28;20501;-73
2022/09/29 08:45:54;;;;;;;5.38;1.70;;;;;;;13.90;79.40;97331.94;5023810;28;20025;-73
2022/09/29 08:48:23;;;;;;;5.32;2.28;;;;;;;13.78;81.75;97318.50;5025623;28;20104;-71
2022/09/29 08:51:02;;;;;;;5.63;1.60;;;;;;;13.99;80.31;97342.06;5024863;28;20036;-71
2022/09/29 08:53:33;;;;;;;5.72;1.92;;;;;;;14.28;78.17;97332.72;5024730;28;20510;-71
2022/09/29 08:56:03;;;;;;;3.65;1.83;;;;;;;14.58;76.15;97332.09;5019445;28;20060;-70
2022/09/29 08:58:29;;;;;;;6.18;1.52;;;;;;;14.38;76.02;97332.78;5022132;28;20633;-70
2022/09/29 09:01:23;;;;;;;3.63;1.70;;;;;;;14.48;74.72;97341.00;5027035;28;20036;-69
2022/09/29 09:04:15;;;;;;;2.97;1.30;;;;;;;15.19;71.90;97336.94;5024290;28;20056;-72
2022/09/29 09:06:58;;;;;;;4.32;1.30;;;;;;;15.74;70.24;97343.56;5018916;28;20456;-69
2022/09/29 09:09:45;;;;;;;5.22;1.58;;;;;;;16.05;68.07;97335.38;5028368;28;20156;-69
2022/09/29 09:12:28;;;;;;;5.00;1.70;;;;;;;17.49;63.12;97339.19;5020692;28;20071;-69
2022/09/29 09:15:13;;;;;;;4.85;1.50;;;;;;;18.98;57.66;97328.47;5023796;28;20116;-69
2022/09/29 09:17:48;;;;;;;2.63;1.40;;;;;;;21.74;50.19;97325.38;5028584;28;20080;-69
2022/09/29 09:20:40;;;;;;;3.10;1.67;;;;;;;22.24;47.62;97336.28;5033063;28;20029;-70
2022/09/29 09:23:12;;;;;;;4.32;1.60;;;;;;;23.05;45.95;97329.66;5027634;28;20033;-70
2022/09/29 09:25:47;;;;;;;2.38;1.30;;;;;;;22.63;46.69;97333.88;5027807;28;20045;-70
2022/09/29 09:28:21;;;;;;;4.47;1.20;;;;;;;22.81;47.52;97338.31;5018326;28;20030;-71
2022/09/29 09:31:05;;;;;;;5.35;1.20;;;;;;;22.97;46.04;97349.75;5027654;28;20055;-71
2022/09/29 09:33:43;;;;;;;5.00;1.67;;;;;;;22.43;47.13;97338.00;5030891;28;20103;-72
2022/09/29 09:36:17;;;;;;;6.53;1.30;;;;;;;22.07;48.19;97339.72;5024813;28;20396;-71
2022/09/29 09:39:09;;;;;;;2.65;1.30;;;;;;;21.59;46.57;97343.09;5019081;28;20030;-71
2022/09/29 09:41:36;;;;;;;3.10;1.35;;;;;;;21.03;49.03;97330.53;5029375;28;20038;-71
2022/09/29 09:44:24;;;;;;;3.60;1.25;;;;;;;20.96;49.63;97341.16;5036398;28;20166;-70
2022/09/29 09:46:57;;;;;;;2.57;1.37;;;;;;;21.67;49.05;97333.28;5039957;28;20018;-69
2022/09/29 09:49:29;;;;;;;5.20;1.38;;;;;;;21.85;47.93;97347.97;5020326;28;20033;-70
2022/09/29 09:52:40;;;;;;;4.15;1.23;;;;;;;20.03;50.11;97354.94;5024581;28;20159;-70
2022/09/29 09:55:13;;;;;;;3.28;1.35;;;;;;;20.36;50.54;97348.31;4973111;28;20132;-70
2022/09/29 09:57:54;;;;;;;2.55;1.25;;;;;;;19.30;51.75;97345.31;5028583;28;20033;-71
2022/09/29 10:00:29;;;;;;;1.85;1.13;;;;;;;19.72;52.15;97349.13;5039536;28;20048;-71
2022/09/29 10:02:56;;;;;;;3.97;1.30;;;;;;;19.82;53.27;97338.81;5027091;28;20052;-69
2022/09/29 10:05:29;;;;;;;3.95;1.60;;;;;;;19.65;51.82;97344.00;5027723;28;20026;-71
2022/09/29 10:07:54;;;;;;;3.72;1.60;;;;;;;17.83;55.73;97365.78;5025574;28;20025;-70
2022/09/29 10:10:22;;;;;;;3.40;1.20;;;;;;;18.64;54.50;97358.72;5029943;28;20489;-70
2022/09/29 10:13:01;;;;;;;2.50;1.23;;;;;;;18.44;55.59;97365.22;5026133;28;20021;-70
2022/09/29 10:15:49;;;;;;;7.90;1.40;;;;;;;17.62;58.88;97363.16;5023757;28;20124;-70
2022/09/29 10:18:27;;;;;;;2.50;1.30;;;;;;;17.63;58.49;97367.56;5027267;28;20034;-70
2022/09/29 10:20:53;;;;;;;5.97;1.55;;;;;;;16.92;57.68;97346.06;5022913;28;20043;-70
2022/09/29 10:23:32;;;;;;;2.22;1.10;;;;;;;16.70;59.27;97366.34;5023136;28;20098;-72
2022/09/29 10:26:15;;;;;;;2.20;1.20;;;;;;;16.84;59.59;97367.41;5029188;28;20371;-72
2022/09/29 10:28:49;;;;;;;3.42;1.13;;;;;;;16.88;58.25;97369.59;5024246;28;20029;-73
2022/09/29 10:31:35;;;;;;;4.72;1.20;;;;;;;16.86;58.56;97367.13;5017572;28;20155;-68
2022/09/29 10:34:09;;;;;;;7.07;1.50;;;;;;;16.71;59.42;97357.03;5016580;28;20431;-69
2022/09/29 10:36:48;;;;;;;3.40;1.15;;;;;;;16.64;58.01;97351.09;5021955;28;20034;-78
2022/09/29 10:39:29;;;;;;;7.28;1.15;;;;;;;17.34;54.36;97364.72;5023180;28;20022;-79
2022/09/29 10:41:54;;;;;;;4.95;1.10;;;;;;;17.19;55.49;97359.34;5021938;28;20045;-73
2022/09/29 10:44:20;;;;;;;4.15;1.20;;;;;;;17.27;55.60;97347.81;5022028;28;20064;-73
2022/09/29 10:46:50;;;;;;;3.28;1.10;;;;;;;17.59;55.12;97361.00;5024024;28;20025;-73
2022/09/29 10:49:18;;;;;;;2.90;1.05;;;;;;;17.83;54.34;97363.88;5024185;28;20483;-71
2022/09/29 10:52:03;;;;;;;2.83;1.17;;;;;;;16.88;56.94;97362.22;5017478;28;20076;-71
2022/09/29 10:54:37;;;;;;;3.67;1.50;;;;;;;16.68;57.52;97363.06;5020622;28;20022;-71
2022/09/29 10:57:14;;;;;;;2.63;1.00;;;;;;;17.17;56.14;97373.28;5027618;28;20117;-72
2022/09/29 10:59:52;;;;;;;4.88;1.23;;;;;;;17.03;56.99;97369.53;5036129;28;20953;-79
2022/09/29 11:02:30;;;;;;;11.90;1.30;;;;;;;17.12;56.54;97350.63;5034412;28;22180;-79
2022/09/29 11:04:59;;;;;;;3.25;1.30;;;;;;;17.56;55.69;97358.84;5037790;28;20018;-79
2022/09/29 11:07:25;;;;;;;3.63;1.30;;;;;;;17.57;56.60;97365.94;5026412;28;20057;-79
2022/09/29 11:09:53;;;;;;;5.45;1.45;;;;;;;17.84;54.60;97356.47;5029017;28;20037;-78
2022/09/29 11:12:34;;;;;;;4.88;2.10;;;;;;;17.79;56.34;97364.69;5031504;28;20546;-78
2022/09/29 11:15:00;;;;;;;2.17;1.20;;;;;;;17.52;55.15;97365.97;5019628;28;20111;-67
2022/09/29 11:17:36;;;;;;;6.30;2.70;;;;;;;17.37;56.95;97369.63;5016681;28;20040;-68
2022/09/29 11:20:09;;;;;;;5.03;1.50;;;;;;;17.33;57.72;97365.81;5018150;28;20407;-68
2022/09/29 11:22:52;;;;;;;5.32;1.83;;;;;;;17.14;56.80;97365.66;5019778;28;20037;-68
2022/09/29 11:25:42;;;;;;;4.47;1.50;;;;;;;17.23;56.12;97363.94;5024635;28;20079;-67
2022/09/29 11:28:45;;;;;;;3.40;1.40;;;;;;;17.61;56.91;97363.47;5021589;28;20021;-65
2022/09/29 11:31:25;;;;;;;3.90;1.63;;;;;;;17.81;55.35;97371.53;5027687;28;20026;-66
2022/09/29 11:34:12;;;;;;;3.30;1.33;;;;;;;18.50;53.79;97371.50;5028771;28;20033;-71
2022/09/29 11:36:46;;;;;;;5.65;1.40;;;;;;;18.14;54.66;97366.34;5029767;28;20099;-69
2022/09/29 11:39:21;;;;;;;3.53;1.40;;;;;;;17.29;56.42;97368.31;5021720;28;20033;-70
2022/09/29 11:41:57;;;;;;;1.80;1.10;;;;;;;18.26;55.58;97355.00;5024984;28;20025;-73
2022/09/29 11:44:34;;;;;;;8.15;1.45;;;;;;;17.73;56.79;97367.44;5026208;28;20025;-73
2022/09/29 11:47:35;;;;;;;6.07;1.38;;;;;;;17.77;57.49;97366.91;5036823;28;20049;-69
2022/09/29 11:50:20;;;;;;;9.70;1.90;;;;;;;17.70;57.81;97367.22;5017106;28;20349;-69
2022/09/29 11:53:11;;;;;;;3.17;1.10;;;;;;;18.24;55.00;97366.25;5026585;28;20068;-69
2022/09/29 11:55:44;;;;;;;5.20;1.30;;;;;;;19.44;53.28;97359.91;5021051;28;20044;-66